createdAt,value
2018-11-02T00:01:52.000Z,1004.018
2018-11-02T00:11:52.000Z,1004.15
2018-11-02T00:21:52.000Z,1004.139
2018-11-02T00:31:52.000Z,1004.312
2018-11-02T00:41:52.000Z,1004.494
2018-11-02T00:51:52.000Z,1004.541
2018-11-02T01:01:52.000Z,1004.656
2018-11-02T01:21:53.000Z,1004.774
2018-11-02T01:31:52.000Z,1004.767
2018-11-02T01:41:52.000Z,1004.523
2018-11-02T01:51:52.000Z,1004.578
2018-11-02T02:01:52.000Z,1004.888
2018-11-02T02:11:52.000Z,1005.097
2018-11-02T02:21:52.000Z,1005.156
2018-11-02T02:31:52.000Z,1005.222
2018-11-02T02:41:52.000Z,1005.213
2018-11-02T02:51:52.000Z,1005.292
2018-11-02T03:01:52.000Z,1005.502
2018-11-02T03:11:52.000Z,1005.554
2018-11-02T03:21:52.000Z,1005.725
2018-11-02T03:31:52.000Z,1005.973
2018-11-02T03:41:52.000Z,1006.076
2018-11-02T03:51:52.000Z,1006.109
2018-11-02T04:01:52.000Z,1006.271
2018-11-02T04:11:52.000Z,1006.426
2018-11-02T04:21:52.000Z,1006.623
2018-11-02T04:31:52.000Z,1006.846
2018-11-02T04:41:52.000Z,1006.998
2018-11-02T04:51:52.000Z,1007.175
2018-11-02T05:01:52.000Z,1007.398
2018-11-02T05:11:52.000Z,1007.795
2018-11-02T05:21:53.000Z,1007.953
2018-11-02T05:31:53.000Z,1008.152
2018-11-02T05:41:53.000Z,1008.455
2018-11-02T05:51:53.000Z,1008.649
2018-11-02T06:01:53.000Z,1008.966
2018-11-02T06:11:53.000Z,1009.203
2018-11-02T06:21:53.000Z,1009.432
2018-11-02T06:31:53.000Z,1009.576
2018-11-02T06:41:53.000Z,1009.88
2018-11-02T06:51:53.000Z,1010.076
2018-11-02T07:01:53.000Z,1010.324
2018-11-02T07:11:53.000Z,1010.633
2018-11-02T07:21:53.000Z,1010.935
2018-11-02T07:31:53.000Z,1011.086
2018-11-02T07:41:53.000Z,1011.282
2018-11-02T07:51:53.000Z,1011.42
2018-11-02T08:01:53.000Z,1011.665
2018-11-02T08:11:53.000Z,1011.696
2018-11-02T08:21:53.000Z,1011.823
2018-11-02T08:31:53.000Z,1011.897
2018-11-02T08:41:53.000Z,1012.042
2018-11-02T08:51:53.000Z,1012.201
2018-11-02T09:01:53.000Z,1012.335
2018-11-02T09:11:53.000Z,1012.493
2018-11-02T09:21:53.000Z,1012.545
2018-11-02T09:31:53.000Z,1012.716
2018-11-02T09:41:53.000Z,1012.799
2018-11-02T09:51:53.000Z,1013.064
2018-11-02T10:01:53.000Z,1013.216
2018-11-02T10:11:53.000Z,1013.549
2018-11-02T10:21:53.000Z,1013.614
2018-11-02T10:31:53.000Z,1013.61
2018-11-02T10:41:53.000Z,1013.747
2018-11-02T10:51:53.000Z,1013.872
2018-11-02T11:01:53.000Z,1014.084
2018-11-02T11:11:53.000Z,1014.198
2018-11-02T11:21:53.000Z,1014.305
2018-11-02T11:31:53.000Z,1014.529
2018-11-02T11:41:53.000Z,1014.62
2018-11-02T11:51:53.000Z,1014.531
2018-11-02T12:01:53.000Z,1014.62
2018-11-02T12:11:53.000Z,1014.687
2018-11-02T12:21:53.000Z,1014.789
2018-11-02T12:31:53.000Z,1014.876
2018-11-02T12:41:53.000Z,1014.855
2018-11-02T12:51:53.000Z,1014.926
2018-11-02T13:01:53.000Z,1014.919
2018-11-02T13:11:54.000Z,1014.956
2018-11-02T13:21:54.000Z,1015.096
2018-11-02T13:31:54.000Z,1015.247
2018-11-02T13:41:54.000Z,1015.332
2018-11-02T13:51:54.000Z,1015.485
2018-11-02T14:01:54.000Z,1015.645
2018-11-02T14:11:54.000Z,1015.84
2018-11-02T14:21:54.000Z,1015.995
2018-11-02T14:31:54.000Z,1016.14
2018-11-02T14:51:54.000Z,1016.531
2018-11-02T15:01:54.000Z,1016.74
2018-11-02T15:11:54.000Z,1016.884
2018-11-02T15:21:54.000Z,1017.011
2018-11-02T15:31:54.000Z,1017.124
2018-11-02T15:41:54.000Z,1017.178
2018-11-02T15:51:54.000Z,1017.142
2018-11-02T16:01:54.000Z,1017.247
2018-11-02T16:11:54.000Z,1017.364
2018-11-02T16:21:54.000Z,1017.407
2018-11-02T16:31:54.000Z,1017.381
2018-11-02T16:41:54.000Z,1017.383
2018-11-02T16:51:54.000Z,1017.699
2018-11-02T17:01:54.000Z,1017.864
2018-11-02T17:11:54.000Z,1018.079
2018-11-02T17:21:54.000Z,1018.24
2018-11-02T17:31:54.000Z,1018.508
2018-11-02T17:41:54.000Z,1018.622
2018-11-02T17:51:54.000Z,1018.839
2018-11-02T18:01:54.000Z,1018.953
2018-11-02T18:11:54.000Z,1019.012
2018-11-02T18:21:56.000Z,1019.113
2018-11-02T18:31:54.000Z,1019.337
2018-11-02T18:41:54.000Z,1019.462
2018-11-02T18:51:54.000Z,1019.566
2018-11-02T19:01:54.000Z,1019.655
2018-11-02T19:11:54.000Z,1019.918
2018-11-02T19:21:54.000Z,1020.035
2018-11-02T19:31:54.000Z,1020.211
2018-11-02T19:41:54.000Z,1020.274
2018-11-02T19:51:54.000Z,1020.323
2018-11-02T20:01:54.000Z,1020.334
2018-11-02T20:11:54.000Z,1020.401
2018-11-02T20:21:55.000Z,1020.516
2018-11-02T20:31:54.000Z,1020.558
2018-11-02T20:41:54.000Z,1020.515
2018-11-02T20:51:54.000Z,1020.502
2018-11-02T21:01:54.000Z,1020.634
2018-11-02T21:11:54.000Z,1020.776
2018-11-02T21:21:54.000Z,1020.88
2018-11-02T21:31:56.000Z,1020.902
2018-11-02T21:41:54.000Z,1020.976
2018-11-02T21:51:55.000Z,1021.014
2018-11-02T22:01:56.000Z,1021.108
2018-11-02T22:11:55.000Z,1021.048
2018-11-02T22:21:55.000Z,1021.095
2018-11-02T22:31:55.000Z,1021.229
2018-11-02T22:41:55.000Z,1021.185
2018-11-02T22:51:55.000Z,1021.146
2018-11-02T23:01:55.000Z,1021.22
2018-11-02T23:11:55.000Z,1021.392
2018-11-02T23:21:55.000Z,1021.459
2018-11-02T23:31:55.000Z,1021.54
2018-11-02T23:41:55.000Z,1021.537
2018-11-02T23:51:55.000Z,1021.483
